createdAt,value
2022-08-26T00:01:35.664Z,2.63
2022-08-26T00:03:43.266Z,2.00
2022-08-26T00:05:53.727Z,2.17
2022-08-26T00:08:00.954Z,1.88
2022-08-26T00:10:09.251Z,2.35
2022-08-26T00:12:16.330Z,2.20
2022-08-26T00:14:28.290Z,2.10
2022-08-26T00:16:37.752Z,2.70
2022-08-26T00:18:48.226Z,2.40
2022-08-26T00:20:57.863Z,2.17
2022-08-26T00:23:05.278Z,2.08
2022-08-26T00:25:14.588Z,2.20
2022-08-26T00:27:24.066Z,2.17
2022-08-26T00:29:34.909Z,2.22
2022-08-26T00:31:45.348Z,2.30
2022-08-26T00:33:52.679Z,2.03
2022-08-26T00:36:02.771Z,1.83
2022-08-26T00:38:10.018Z,1.88
2022-08-26T00:40:19.484Z,1.92
2022-08-26T00:42:26.729Z,1.80
2022-08-26T00:44:33.965Z,1.50
2022-08-26T00:46:46.924Z,1.65
2022-08-26T00:49:03.115Z,1.25
2022-08-26T00:51:18.555Z,1.70
2022-08-26T00:53:30.029Z,1.80
2022-08-26T00:55:44.174Z,1.48
2022-08-26T00:57:53.911Z,1.60
2022-08-26T01:00:04.476Z,1.25
2022-08-26T01:02:19.970Z,1.98
2022-08-26T01:04:28.618Z,1.60
2022-08-26T01:06:37.851Z,1.20
2022-08-26T01:08:45.496Z,1.50
2022-08-26T01:10:55.765Z,1.33
2022-08-26T01:13:08.357Z,1.67
2022-08-26T01:15:19.270Z,1.52
2022-08-26T01:17:26.758Z,1.40
2022-08-26T01:19:39.222Z,1.45
2022-08-26T01:21:53.356Z,1.20
2022-08-26T01:24:02.796Z,1.40
2022-08-26T01:26:19.439Z,1.42
2022-08-26T01:28:30.415Z,1.80
2022-08-26T01:30:38.646Z,1.30
2022-08-26T01:32:46.277Z,2.72
2022-08-26T01:34:53.813Z,2.28
2022-08-26T01:37:05.806Z,1.70
2022-08-26T01:39:15.906Z,2.08
2022-08-26T01:41:27.070Z,1.92
2022-08-26T01:43:37.077Z,1.90
2022-08-26T01:45:45.232Z,1.70
2022-08-26T01:47:57.014Z,1.42
2022-08-26T01:50:09.069Z,1.70
2022-08-26T01:52:23.941Z,1.80
2022-08-26T01:54:37.351Z,1.90
2022-08-26T01:56:45.669Z,1.60
2022-08-26T01:58:58.576Z,1.80
2022-08-26T02:01:06.436Z,1.90
2022-08-26T02:03:23.493Z,1.90
2022-08-26T02:05:32.007Z,1.83
2022-08-26T02:07:43.633Z,1.80
2022-08-26T02:09:52.660Z,1.77
2022-08-26T02:11:59.738Z,1.70
2022-08-26T02:14:13.371Z,1.73
2022-08-26T02:16:23.292Z,1.52
2022-08-26T02:18:31.477Z,1.52
2022-08-26T02:20:38.506Z,1.50
2022-08-26T02:22:47.217Z,2.20
2022-08-26T02:24:58.657Z,1.60
2022-08-26T02:27:07.060Z,1.95
2022-08-26T02:29:22.534Z,1.85
2022-08-26T02:31:30.217Z,2.13
2022-08-26T02:33:37.361Z,2.30
2022-08-26T02:35:51.146Z,2.40
2022-08-26T02:37:58.274Z,1.73
2022-08-26T02:40:10.332Z,1.98
2022-08-26T02:42:17.354Z,2.05
2022-08-26T02:44:24.485Z,1.90
2022-08-26T02:46:32.983Z,2.47
2022-08-26T02:48:40.019Z,2.30
2022-08-26T02:50:47.006Z,2.55
2022-08-26T02:52:54.902Z,2.17
2022-08-26T02:55:01.768Z,2.15
2022-08-26T02:57:11.610Z,2.00
2022-08-26T02:59:19.107Z,2.35
2022-08-26T03:01:33.916Z,2.38
2022-08-26T03:03:40.989Z,2.58
2022-08-26T03:05:48.739Z,2.30
2022-08-26T03:07:56.230Z,2.45
2022-08-26T03:10:08.172Z,2.40
2022-08-26T03:12:17.500Z,2.45
2022-08-26T03:14:26.677Z,2.60
2022-08-26T03:16:36.178Z,2.33
2022-08-26T03:18:44.216Z,2.35
2022-08-26T03:20:59.289Z,2.10
2022-08-26T03:23:07.169Z,2.72
2022-08-26T03:25:18.559Z,2.45
2022-08-26T03:27:27.387Z,2.58
2022-08-26T03:29:51.418Z,2.25
2022-08-26T03:32:01.364Z,2.38
2022-08-26T03:34:08.845Z,2.50
2022-08-26T03:36:18.185Z,2.40
2022-08-26T03:38:27.914Z,2.65
2022-08-26T03:40:35.766Z,2.72
2022-08-26T03:42:45.619Z,2.70
2022-08-26T03:44:53.766Z,2.50
2022-08-26T03:47:01.094Z,2.45
2022-08-26T03:49:10.017Z,2.78
2022-08-26T03:51:19.046Z,2.50
2022-08-26T03:53:26.186Z,2.33
2022-08-26T03:55:34.642Z,2.60
2022-08-26T03:57:41.720Z,2.70
2022-08-26T03:59:51.254Z,2.78
2022-08-26T04:01:59.336Z,2.80
2022-08-26T04:04:06.751Z,3.08
2022-08-26T04:06:14.385Z,2.83
2022-08-26T04:08:21.719Z,3.08
2022-08-26T04:10:29.621Z,3.00
2022-08-26T04:12:38.397Z,2.38
2022-08-26T04:14:45.464Z,2.40
2022-08-26T04:16:55.528Z,2.92
2022-08-26T04:19:03.104Z,2.72
2022-08-26T04:21:11.163Z,2.72
2022-08-26T04:25:28.488Z,2.83
2022-08-26T04:27:35.786Z,3.00
2022-08-26T04:29:44.239Z,2.70
2022-08-26T04:31:55.604Z,3.55
2022-08-26T04:34:03.310Z,3.50
2022-08-26T04:36:11.670Z,3.38
2022-08-26T04:38:21.107Z,3.60
2022-08-26T04:40:29.336Z,3.10
2022-08-26T04:42:36.858Z,3.25
2022-08-26T04:44:44.290Z,3.53
2022-08-26T04:46:53.269Z,3.70
2022-08-26T04:49:00.543Z,3.60
2022-08-26T04:51:07.919Z,4.22
2022-08-26T04:53:15.161Z,3.67
2022-08-26T04:55:25.246Z,3.97
2022-08-26T04:57:45.970Z,3.53
2022-08-26T04:59:53.141Z,4.25
2022-08-26T05:02:02.748Z,5.30
2022-08-26T05:04:12.536Z,4.65
2022-08-26T05:06:23.755Z,3.80
2022-08-26T05:08:31.405Z,3.05
2022-08-26T05:10:41.506Z,3.25
2022-08-26T05:12:48.778Z,2.90
2022-08-26T05:14:56.571Z,2.58
2022-08-26T05:17:06.120Z,2.80
2022-08-26T05:19:14.064Z,2.40
2022-08-26T05:21:26.828Z,2.70
2022-08-26T05:23:34.823Z,2.92
2022-08-26T05:25:43.541Z,3.30
2022-08-26T05:27:50.619Z,3.03
2022-08-26T05:30:01.120Z,3.13
2022-08-26T05:32:11.272Z,2.63
2022-08-26T05:34:18.268Z,3.28
2022-08-26T05:36:28.932Z,3.47
2022-08-26T05:38:35.949Z,3.78
2022-08-26T05:40:45.494Z,3.10
2022-08-26T05:42:54.110Z,3.00
2022-08-26T05:45:01.038Z,3.33
2022-08-26T05:47:10.514Z,3.30
2022-08-26T05:49:18.869Z,3.47
2022-08-26T05:51:26.520Z,2.75
2022-08-26T05:53:33.849Z,3.80
2022-08-26T05:55:47.434Z,3.42
2022-08-26T05:57:54.769Z,3.83
2022-08-26T06:00:02.817Z,3.30
2022-08-26T06:02:20.755Z,3.28
2022-08-26T06:04:29.274Z,3.90
2022-08-26T06:06:45.002Z,3.15
2022-08-26T06:08:53.153Z,3.50
2022-08-26T06:11:03.765Z,3.95
2022-08-26T06:13:13.570Z,4.95
2022-08-26T06:15:21.246Z,5.30
2022-08-26T06:17:30.845Z,4.78
2022-08-26T06:19:38.380Z,5.38
2022-08-26T06:21:54.773Z,6.35
2022-08-26T06:24:20.368Z,6.68
2022-08-26T06:26:28.181Z,5.03
2022-08-26T06:28:36.132Z,5.88
2022-08-26T06:30:44.834Z,6.10
2022-08-26T06:32:53.823Z,5.50
2022-08-26T06:35:02.093Z,5.13
2022-08-26T06:37:09.935Z,6.03
2022-08-26T06:39:18.953Z,5.13
2022-08-26T06:41:27.832Z,4.75
2022-08-26T06:43:35.107Z,5.55
2022-08-26T06:45:45.922Z,4.72
2022-08-26T06:47:56.037Z,6.35
2022-08-26T06:50:03.521Z,5.78
2022-08-26T06:52:10.746Z,6.43
2022-08-26T06:54:18.195Z,5.22
2022-08-26T06:56:27.676Z,5.63
2022-08-26T06:58:34.951Z,6.60
2022-08-26T07:00:47.176Z,6.30
2022-08-26T07:02:56.507Z,6.20
2022-08-26T07:05:03.767Z,5.68
2022-08-26T07:07:11.873Z,5.32
2022-08-26T07:09:19.218Z,5.75
2022-08-26T07:11:26.502Z,5.15
2022-08-26T07:13:38.698Z,5.18
2022-08-26T07:15:46.118Z,4.30
2022-08-26T07:17:55.312Z,4.07
2022-08-26T07:20:04.037Z,3.90
2022-08-26T07:22:12.445Z,3.95
2022-08-26T07:24:19.626Z,3.17
2022-08-26T07:26:30.623Z,3.60
2022-08-26T07:28:37.984Z,3.55
2022-08-26T07:30:45.637Z,2.75
2022-08-26T07:32:52.592Z,2.70
2022-08-26T07:35:01.724Z,2.95
2022-08-26T07:37:09.208Z,3.30
2022-08-26T07:39:16.491Z,2.95
2022-08-26T07:41:25.723Z,3.20
2022-08-26T07:43:33.313Z,3.08
2022-08-26T07:45:41.824Z,2.80
2022-08-26T07:47:49.321Z,2.75
2022-08-26T07:49:57.212Z,2.60
2022-08-26T07:52:06.194Z,2.70
2022-08-26T07:54:13.523Z,2.88
2022-08-26T07:56:21.019Z,2.72
2022-08-26T07:58:28.092Z,3.35
2022-08-26T08:00:35.692Z,2.85
2022-08-26T08:02:43.439Z,2.92
2022-08-26T08:04:50.786Z,3.30
2022-08-26T08:07:00.298Z,3.22
2022-08-26T08:09:09.786Z,3.30
2022-08-26T08:11:18.345Z,3.50
2022-08-26T08:13:26.460Z,3.40
2022-08-26T08:15:34.350Z,3.70
2022-08-26T08:17:43.535Z,3.50
2022-08-26T08:19:50.606Z,3.55
2022-08-26T08:21:57.636Z,3.85
2022-08-26T08:24:08.512Z,3.47
2022-08-26T08:26:16.906Z,3.83
2022-08-26T08:28:23.940Z,3.95
2022-08-26T08:30:31.333Z,4.03
2022-08-26T08:32:42.299Z,3.72
2022-08-26T08:34:50.255Z,4.20
2022-08-26T08:36:57.611Z,3.80
2022-08-26T08:39:04.814Z,3.78
2022-08-26T08:41:28.995Z,3.40
2022-08-26T08:43:43.148Z,3.83
2022-08-26T08:45:54.026Z,3.22
2022-08-26T08:48:04.009Z,3.20
2022-08-26T08:50:29.055Z,4.60
2022-08-26T08:52:38.338Z,4.10
2022-08-26T08:54:45.213Z,3.60
2022-08-26T08:57:00.337Z,3.50
2022-08-26T08:59:15.190Z,4.10
2022-08-26T09:01:45.128Z,3.40
2022-08-26T09:03:59.250Z,3.78
2022-08-26T09:06:18.105Z,2.92
2022-08-26T09:08:30.303Z,2.67
2022-08-26T09:10:40.356Z,3.25
2022-08-26T09:12:51.169Z,7.57
2022-08-26T09:17:17.675Z,57.97
2022-08-26T09:19:32.740Z,39.75
2022-08-26T09:21:40.173Z,45.92
2022-08-26T09:23:49.764Z,54.30
2022-08-26T09:26:00.941Z,45.10
2022-08-26T09:30:28.656Z,32.72
2022-08-26T09:32:36.354Z,24.45
2022-08-26T09:34:57.469Z,44.75
2022-08-26T09:37:05.109Z,37.97
2022-08-26T09:39:29.130Z,67.38
2022-08-26T09:41:38.213Z,31.73
2022-08-26T09:43:47.540Z,23.75
2022-08-26T09:45:59.441Z,16.38
2022-08-26T09:48:07.601Z,28.90
2022-08-26T09:50:28.676Z,65.75
2022-08-26T09:52:36.644Z,86.57
2022-08-26T09:54:46.059Z,101.43
2022-08-26T09:56:54.132Z,135.07
2022-08-26T09:59:03.721Z,94.22
2022-08-26T10:01:19.458Z,63.50
2022-08-26T10:03:31.639Z,37.58
2022-08-26T10:05:44.665Z,14.82
2022-08-26T10:07:54.107Z,9.57
2022-08-26T10:10:01.392Z,16.67
2022-08-26T10:12:11.589Z,17.27
2022-08-26T10:14:25.668Z,18.17
2022-08-26T10:16:41.090Z,16.98
2022-08-26T10:18:58.106Z,10.60
2022-08-26T10:21:10.831Z,8.77
2022-08-26T10:23:23.391Z,6.70
2022-08-26T10:25:34.564Z,6.22
2022-08-26T10:27:52.919Z,7.93
2022-08-26T10:30:11.711Z,8.55
2022-08-26T10:32:24.280Z,6.43
2022-08-26T10:34:32.734Z,6.93
2022-08-26T10:37:14.965Z,6.55
2022-08-26T10:39:29.609Z,6.88
2022-08-26T10:41:40.972Z,7.50
2022-08-26T10:46:03.970Z,8.20
2022-08-26T10:48:13.064Z,6.55
2022-08-26T10:50:20.656Z,6.53
2022-08-26T10:52:35.571Z,5.75
2022-08-26T10:54:48.749Z,5.53
2022-08-26T10:57:02.482Z,5.93
2022-08-26T10:59:17.909Z,5.97
2022-08-26T11:01:52.466Z,6.40
2022-08-26T11:04:12.433Z,6.88
2022-08-26T11:06:29.065Z,5.35
2022-08-26T11:08:36.341Z,6.30
2022-08-26T11:11:07.023Z,5.60
2022-08-26T11:13:15.342Z,4.47
2022-08-26T11:16:13.403Z,4.15
2022-08-26T11:18:44.567Z,4.53
2022-08-26T11:20:51.748Z,4.43
2022-08-26T11:22:59.688Z,3.88
2022-08-26T11:25:15.061Z,4.80
2022-08-26T11:28:07.173Z,4.78
2022-08-26T11:30:39.572Z,4.50
2022-08-26T11:32:53.399Z,4.72
2022-08-26T11:35:05.083Z,5.20
2022-08-26T11:39:36.871Z,4.65
2022-08-26T11:41:48.235Z,4.93
2022-08-26T11:44:01.259Z,4.63
2022-08-26T11:46:10.206Z,5.50
2022-08-26T11:48:21.099Z,6.45
2022-08-26T11:50:31.710Z,5.45
2022-08-26T11:52:39.210Z,5.95
2022-08-26T11:55:04.916Z,6.10
2022-08-26T11:57:15.679Z,5.68
2022-08-26T11:59:27.840Z,6.03
2022-08-26T12:01:39.563Z,5.97
2022-08-26T12:03:52.785Z,5.95
2022-08-26T12:06:02.015Z,6.70
2022-08-26T12:08:14.322Z,7.88
2022-08-26T12:10:31.640Z,8.35
2022-08-26T12:12:40.008Z,9.00
2022-08-26T12:14:47.490Z,10.40
2022-08-26T12:16:55.909Z,10.35
2022-08-26T12:19:03.335Z,10.57
2022-08-26T12:21:24.324Z,11.68
2022-08-26T12:23:44.017Z,10.90
2022-08-26T12:25:51.302Z,4.45
2022-08-26T12:28:06.302Z,3.55
2022-08-26T12:30:19.167Z,2.40
2022-08-26T12:32:28.918Z,3.00
2022-08-26T12:34:36.615Z,2.50
2022-08-26T12:36:49.352Z,1.80
2022-08-26T12:38:58.315Z,2.08
2022-08-26T12:41:05.594Z,2.33
2022-08-26T12:43:15.635Z,2.45
2022-08-26T12:45:31.374Z,2.75
2022-08-26T12:47:43.071Z,3.05
2022-08-26T12:49:51.102Z,2.17
2022-08-26T12:51:59.873Z,2.45
2022-08-26T12:54:08.340Z,1.88
2022-08-26T12:56:33.599Z,1.85
2022-08-26T12:58:41.879Z,1.85
2022-08-26T13:00:49.866Z,2.22
2022-08-26T13:02:57.180Z,2.05
2022-08-26T13:05:04.169Z,2.05
2022-08-26T13:07:26.288Z,1.50
2022-08-26T13:09:34.507Z,2.05
2022-08-26T13:12:02.373Z,2.28
2022-08-26T13:14:11.510Z,1.77
2022-08-26T13:16:18.609Z,1.77
2022-08-26T13:18:26.629Z,1.92
2022-08-26T13:20:33.808Z,1.92
2022-08-26T13:22:42.777Z,1.92
2022-08-26T13:24:50.316Z,1.95
2022-08-26T13:26:58.214Z,2.05
2022-08-26T13:29:09.592Z,1.90
2022-08-26T13:31:18.565Z,2.10
2022-08-26T13:33:25.801Z,2.20
2022-08-26T13:35:33.340Z,2.13
2022-08-26T13:37:42.057Z,1.98
2022-08-26T13:39:49.384Z,2.20
2022-08-26T13:41:56.573Z,2.15
2022-08-26T13:44:03.915Z,2.00
2022-08-26T13:46:11.134Z,1.95
2022-08-26T13:48:21.606Z,2.67
2022-08-26T13:50:30.624Z,2.42
2022-08-26T13:52:38.063Z,2.38
2022-08-26T13:54:46.729Z,2.33
2022-08-26T13:56:53.912Z,2.28
2022-08-26T13:59:02.068Z,2.38
2022-08-26T14:01:10.041Z,2.58
2022-08-26T14:03:17.170Z,2.42
2022-08-26T14:05:24.740Z,2.50
2022-08-26T14:07:31.814Z,2.10
2022-08-26T14:09:39.257Z,2.70
2022-08-26T14:11:55.035Z,2.75
2022-08-26T14:14:02.626Z,2.40
2022-08-26T14:16:13.401Z,2.40
2022-08-26T14:18:25.040Z,2.57
2022-08-26T14:20:34.932Z,2.85
2022-08-26T14:22:57.450Z,2.90
2022-08-26T14:25:11.050Z,2.63
2022-08-26T14:27:20.086Z,2.40
2022-08-26T14:29:27.458Z,2.88
2022-08-26T14:31:35.903Z,2.78
2022-08-26T14:33:43.519Z,2.60
2022-08-26T14:35:50.295Z,2.28
2022-08-26T14:37:57.724Z,3.15
2022-08-26T14:40:07.041Z,3.00
2022-08-26T14:42:16.734Z,3.00
2022-08-26T14:44:28.918Z,2.90
2022-08-26T14:48:43.768Z,2.45
2022-08-26T14:50:51.205Z,2.97
2022-08-26T14:53:14.519Z,3.03
2022-08-26T14:55:21.904Z,3.40
2022-08-26T14:57:28.825Z,2.70
2022-08-26T14:59:38.989Z,2.92
2022-08-26T15:01:46.091Z,2.80
2022-08-26T15:03:54.113Z,3.00
2022-08-26T15:06:02.210Z,2.97
2022-08-26T15:08:11.697Z,2.67
2022-08-26T15:10:19.749Z,2.80
2022-08-26T15:12:26.892Z,3.10
2022-08-26T15:14:36.264Z,3.00
2022-08-26T15:16:43.505Z,3.10
2022-08-26T15:18:50.472Z,3.15
2022-08-26T15:20:57.407Z,3.13
2022-08-26T15:23:07.033Z,2.78
2022-08-26T15:25:15.347Z,2.70
2022-08-26T15:27:22.737Z,2.50
2022-08-26T15:29:30.281Z,2.90
2022-08-26T15:31:41.775Z,2.25
2022-08-26T15:33:49.500Z,2.58
2022-08-26T15:35:57.704Z,2.30
2022-08-26T15:38:04.685Z,2.30
2022-08-26T15:40:12.878Z,2.30
2022-08-26T15:42:22.013Z,2.15
2022-08-26T15:44:30.129Z,2.28
2022-08-26T15:46:38.620Z,2.30
2022-08-26T15:48:47.816Z,2.00
2022-08-26T15:50:56.382Z,2.00
2022-08-26T15:53:03.451Z,2.10
2022-08-26T15:55:11.609Z,2.33
2022-08-26T15:57:19.629Z,2.38
2022-08-26T15:59:26.950Z,2.00
2022-08-26T16:01:34.761Z,2.15
2022-08-26T16:03:41.979Z,2.15
2022-08-26T16:05:51.692Z,2.63
2022-08-26T16:07:59.409Z,3.20
2022-08-26T16:10:06.703Z,3.17
2022-08-26T16:14:20.861Z,3.83
2022-08-26T16:16:28.194Z,3.20
2022-08-26T16:18:35.267Z,2.78
2022-08-26T16:21:13.590Z,2.22
2022-08-26T16:23:21.690Z,2.40
2022-08-26T16:25:29.473Z,2.38
2022-08-26T16:27:36.866Z,2.33
2022-08-26T16:29:44.043Z,2.30
2022-08-26T16:31:54.404Z,2.67
2022-08-26T16:34:01.578Z,2.70
2022-08-26T16:36:11.887Z,2.80
2022-08-26T16:38:19.423Z,2.85
2022-08-26T16:40:27.662Z,2.95
2022-08-26T16:42:34.819Z,2.92
2022-08-26T16:44:47.063Z,3.10
2022-08-26T16:46:58.740Z,3.25
2022-08-26T16:49:06.352Z,2.80
2022-08-26T16:51:18.761Z,2.75
2022-08-26T16:53:25.982Z,2.33
2022-08-26T16:55:32.953Z,2.75
2022-08-26T16:57:40.856Z,2.55
2022-08-26T16:59:48.098Z,2.60
2022-08-26T17:01:55.333Z,2.30
2022-08-26T17:04:02.449Z,2.05
2022-08-26T17:06:10.295Z,2.33
2022-08-26T17:08:24.294Z,2.60
2022-08-26T17:10:36.275Z,2.35
2022-08-26T17:12:43.568Z,2.30
2022-08-26T17:14:51.072Z,2.17
2022-08-26T17:16:58.392Z,2.22
2022-08-26T17:19:05.933Z,2.20
2022-08-26T17:21:14.902Z,2.30
2022-08-26T17:23:24.594Z,2.15
2022-08-26T17:25:33.728Z,1.95
2022-08-26T17:27:41.671Z,2.63
2022-08-26T17:29:48.549Z,2.20
2022-08-26T17:31:55.836Z,2.60
2022-08-26T17:34:03.329Z,2.10
2022-08-26T17:36:11.987Z,2.20
2022-08-26T17:38:19.018Z,2.80
2022-08-26T17:40:30.302Z,2.70
2022-08-26T17:42:37.267Z,2.80
2022-08-26T17:44:44.307Z,2.42
2022-08-26T17:46:51.530Z,2.42
2022-08-26T17:48:58.759Z,2.28
2022-08-26T17:51:10.967Z,2.50
2022-08-26T17:53:19.102Z,2.50
2022-08-26T17:55:28.139Z,2.60
2022-08-26T17:57:40.561Z,2.45
2022-08-26T17:59:49.159Z,2.88
2022-08-26T18:02:00.718Z,2.28
2022-08-26T18:04:08.980Z,2.33
2022-08-26T18:06:17.153Z,2.58
2022-08-26T18:08:24.446Z,2.90
2022-08-26T18:10:33.259Z,2.20
2022-08-26T18:12:42.543Z,2.53
2022-08-26T18:14:49.569Z,2.03
2022-08-26T18:16:56.754Z,2.33
2022-08-26T18:19:04.550Z,2.20
2022-08-26T18:21:16.710Z,2.25
2022-08-26T18:23:23.822Z,2.10
2022-08-26T18:25:35.878Z,1.92
2022-08-26T18:27:43.334Z,2.42
2022-08-26T18:29:50.450Z,2.90
2022-08-26T18:31:57.474Z,2.75
2022-08-26T18:34:05.671Z,2.70
2022-08-26T18:36:19.471Z,2.40
2022-08-26T18:38:28.347Z,2.50
2022-08-26T18:40:37.254Z,2.75
2022-08-26T18:42:45.046Z,2.50
2022-08-26T18:47:02.893Z,2.53
2022-08-26T18:49:09.973Z,2.50
2022-08-26T18:51:21.966Z,2.78
2022-08-26T18:53:29.251Z,2.75
2022-08-26T18:55:38.233Z,2.75
2022-08-26T18:57:45.250Z,2.53
2022-08-26T18:59:52.292Z,2.78
2022-08-26T19:01:59.452Z,2.90
2022-08-26T19:04:08.745Z,2.58
2022-08-26T19:06:24.021Z,2.58
2022-08-26T19:08:31.260Z,2.33
2022-08-26T19:10:41.654Z,2.70
2022-08-26T19:12:51.966Z,2.60
2022-08-26T19:14:59.604Z,2.75
2022-08-26T19:17:08.274Z,2.55
2022-08-26T19:19:15.918Z,2.40
2022-08-26T19:21:23.456Z,2.72
2022-08-26T19:23:32.079Z,2.60
2022-08-26T19:25:45.967Z,2.75
2022-08-26T19:27:53.133Z,3.10
2022-08-26T19:30:00.421Z,2.53
2022-08-26T19:32:08.473Z,2.70
2022-08-26T19:34:15.812Z,2.90
2022-08-26T19:36:27.697Z,2.83
2022-08-26T19:38:34.931Z,3.17
2022-08-26T19:40:44.173Z,2.30
2022-08-26T19:42:51.141Z,3.10
2022-08-26T19:45:24.758Z,3.05
2022-08-26T19:47:32.592Z,2.47
2022-08-26T19:49:39.561Z,3.17
2022-08-26T19:51:46.749Z,3.08
2022-08-26T19:53:58.086Z,2.92
2022-08-26T19:56:07.208Z,2.65
2022-08-26T19:58:14.333Z,2.45
2022-08-26T20:00:24.328Z,2.80
2022-08-26T20:02:31.676Z,3.13
2022-08-26T20:04:39.279Z,2.80
2022-08-26T20:06:46.291Z,3.30
2022-08-26T20:08:58.333Z,3.17
2022-08-26T20:11:12.947Z,2.63
2022-08-26T20:13:20.167Z,2.92
2022-08-26T20:15:28.541Z,3.10
2022-08-26T20:17:36.579Z,2.80
2022-08-26T20:20:00.218Z,2.75
2022-08-26T20:22:07.530Z,2.95
2022-08-26T20:24:16.352Z,2.50
2022-08-26T20:26:25.170Z,2.80
2022-08-26T20:28:32.567Z,2.83
2022-08-26T20:30:39.696Z,3.00
2022-08-26T20:32:46.931Z,3.10
2022-08-26T20:34:55.086Z,3.13
2022-08-26T20:37:04.163Z,3.30
2022-08-26T20:39:11.846Z,3.35
2022-08-26T20:41:19.239Z,2.85
2022-08-26T20:43:28.057Z,3.35
2022-08-26T20:45:35.454Z,3.30
2022-08-26T20:47:42.926Z,3.72
2022-08-26T20:49:52.475Z,2.90
2022-08-26T20:52:00.154Z,3.08
2022-08-26T20:54:07.235Z,3.22
2022-08-26T20:56:15.652Z,2.90
2022-08-26T20:58:22.930Z,3.28
2022-08-26T21:00:31.596Z,3.47
2022-08-26T21:02:38.938Z,2.85
2022-08-26T21:04:45.944Z,3.30
2022-08-26T21:06:53.558Z,3.35
2022-08-26T21:09:01.704Z,3.03
2022-08-26T21:11:09.503Z,3.30
2022-08-26T21:13:18.373Z,3.00
2022-08-26T21:15:25.707Z,3.42
2022-08-26T21:17:34.841Z,2.92
2022-08-26T21:19:41.863Z,3.33
2022-08-26T21:21:49.722Z,3.00
2022-08-26T21:23:57.059Z,3.50
2022-08-26T21:26:06.434Z,3.55
2022-08-26T21:28:13.763Z,3.50
2022-08-26T21:30:21.404Z,4.18
2022-08-26T21:32:28.746Z,4.03
2022-08-26T21:34:37.661Z,3.63
2022-08-26T21:36:46.997Z,3.38
2022-08-26T21:38:54.344Z,3.33
2022-08-26T21:41:02.395Z,3.20
2022-08-26T21:43:09.410Z,3.05
2022-08-26T21:45:23.918Z,3.30
2022-08-26T21:47:31.466Z,3.50
2022-08-26T21:49:40.338Z,3.97
2022-08-26T21:51:49.043Z,4.15
2022-08-26T21:53:57.402Z,4.05
2022-08-26T21:56:08.230Z,4.03
2022-08-26T21:58:16.014Z,4.00
2022-08-26T22:00:23.205Z,4.00
2022-08-26T22:02:30.597Z,4.15
2022-08-26T22:04:39.459Z,3.75
2022-08-26T22:06:48.947Z,3.70
2022-08-26T22:08:56.948Z,3.53
2022-08-26T22:11:04.991Z,3.67
2022-08-26T22:13:12.482Z,4.30
2022-08-26T22:15:24.374Z,4.57
2022-08-26T22:17:31.311Z,4.93
2022-08-26T22:19:45.953Z,5.05
2022-08-26T22:21:54.687Z,5.05
2022-08-26T22:24:01.867Z,3.80
2022-08-26T22:26:09.915Z,4.70
2022-08-26T22:28:17.408Z,4.38
2022-08-26T22:30:24.627Z,4.45
2022-08-26T22:32:31.758Z,4.45
2022-08-26T22:34:40.437Z,4.32
2022-08-26T22:36:48.746Z,5.03
2022-08-26T22:38:55.876Z,4.32
2022-08-26T22:41:06.606Z,4.18
2022-08-26T22:43:15.862Z,4.35
2022-08-26T22:45:23.331Z,4.00
2022-08-26T22:47:30.536Z,4.40
2022-08-26T22:49:39.502Z,4.85
2022-08-26T22:51:46.941Z,4.95
2022-08-26T22:53:54.331Z,4.72
2022-08-26T22:56:01.408Z,5.20
2022-08-26T22:58:10.322Z,6.00
2022-08-26T23:00:18.130Z,5.78
2022-08-26T23:02:25.412Z,6.13
2022-08-26T23:04:32.390Z,5.78
2022-08-26T23:06:47.629Z,6.60
2022-08-26T23:08:55.147Z,6.25
2022-08-26T23:11:02.438Z,5.95
2022-08-26T23:13:10.531Z,5.65
2022-08-26T23:15:17.573Z,5.32
2022-08-26T23:17:25.517Z,5.47
2022-08-26T23:19:32.593Z,5.60
2022-08-26T23:21:39.676Z,5.82
2022-08-26T23:23:48.591Z,5.53
2022-08-26T23:25:55.462Z,7.00
2022-08-26T23:28:03.031Z,6.18
2022-08-26T23:30:13.164Z,6.43
2022-08-26T23:32:20.388Z,6.55
2022-08-26T23:34:44.159Z,7.47
2022-08-26T23:36:53.908Z,7.35
2022-08-26T23:39:02.982Z,7.80
2022-08-26T23:41:11.030Z,7.30
2022-08-26T23:43:19.440Z,7.05
2022-08-26T23:45:27.048Z,7.45
2022-08-26T23:47:34.520Z,7.25
2022-08-26T23:49:41.653Z,6.47
2022-08-26T23:52:05.372Z,7.32
2022-08-26T23:54:14.300Z,6.35
2022-08-26T23:56:21.894Z,7.10
2022-08-26T23:58:29.069Z,4.80
